»·PEaware :: BOE561 KSMF-KSNA

BOE561 :: KSMF-KSNA

FLIGHT INFORMATION

Flight Status: Arrived
Operator:
Boeing Commercial Airplane Group
More flights by this operator :: More flights under this callsign
Pilot: Ben F. (2808)
Aircraft: BOEING 737-200
(B732)
More flights by this aircraft type
Origin: KSMF Sacramento Intl
United States
Destination: KSNA John Wayne-Orange Co
United States
More flights between these airports :: More routes between these airports
Route: +SAC CZQ V23 EHF FIM TANDY4
File this flight plan on PilotEdge
Remarks:
Altitude:
(Current/Filed)
31,000ft
Speed:
(Current/Filed)
435kts
Departed: 22-Apr-18 06:47 PM
Arrived: 22-Apr-18 08:00 PM
Distance/Time
Traveled:
351nm/1:13
Distance/Time
To Go:
Arrived

Flight Plot

Page will automatically refresh every two minutes.

Flight plan parsing failed; only flown route is shown


Map Options




Map Legend


Flown Route
Filed Route
Departure Airport
Arrival Airport
Navaid (VOR, NDB)
Fix

Horizontal Profiles

Position Reports

Time Latitude Longitude Heading Altitude Ground
Speed
22-Apr-18 18:30 38.681415 -121.596969 359 32ft 0kts
22-Apr-18 18:31 38.681415 -121.596969 359 32ft 0kts
22-Apr-18 18:32 38.681415 -121.596969 359 32ft 0kts
22-Apr-18 18:33 38.681415 -121.596969 359 32ft 0kts
22-Apr-18 18:34 38.681415 -121.596969 359 32ft 0kts
22-Apr-18 18:35 38.681415 -121.596969 359 32ft 0kts
22-Apr-18 18:36 38.681415 -121.596969 359 32ft 0kts
22-Apr-18 18:37 38.681523 -121.597022 324 32ft 4kts
22-Apr-18 18:38 38.681687 -121.597723 270 32ft 0kts
22-Apr-18 18:39 38.682032 -121.598840 349 32ft 12kts
22-Apr-18 18:40 38.685542 -121.598827 0 32ft 23kts
22-Apr-18 18:41 38.693385 -121.598678 359 32ft 29kts
22-Apr-18 18:42 38.700998 -121.598568 359 32ft 27kts
22-Apr-18 18:43 38.707184 -121.598838 290 32ft 10kts
22-Apr-18 18:44 38.707203 -121.600010 266 32ft 0kts
22-Apr-18 18:45 38.706938 -121.600887 214 32ft 19kts
22-Apr-18 18:46 38.693962 -121.601285 180 33ft 157kts
22-Apr-18 18:47 38.653440 -121.571785 132 2603ft 194kts
22-Apr-18 18:48 38.615427 -121.520291 132 4693ft 250kts
22-Apr-18 18:49 38.567378 -121.455176 132 7335ft 287kts
22-Apr-18 18:50 38.507619 -121.389663 142 10289ft 300kts
22-Apr-18 18:51 38.445088 -121.326417 143 12655ft 320kts
22-Apr-18 18:52 38.373552 -121.254492 143 14313ft 356kts
22-Apr-18 18:53 38.295955 -121.177362 144 16355ft 369kts
22-Apr-18 18:54 38.217975 -121.100438 144 18292ft 376kts
22-Apr-18 18:55 38.138326 -121.022081 145 20030ft 382kts
22-Apr-18 18:56 38.055708 -120.941040 145 21590ft 388kts
22-Apr-18 18:57 37.970559 -120.857756 145 22832ft 397kts
22-Apr-18 18:58 37.887033 -120.776317 145 23918ft 405kts
22-Apr-18 18:59 37.802194 -120.693858 145 24888ft 413kts
22-Apr-18 19:00 37.712464 -120.606928 145 25787ft 421kts
22-Apr-18 19:01 37.622259 -120.519801 146 26584ft 428kts
22-Apr-18 19:02 37.531713 -120.432644 146 27302ft 434kts
22-Apr-18 19:03 37.444863 -120.349291 146 27934ft 439kts
22-Apr-18 19:04 37.359079 -120.267240 146 28459ft 444kts
22-Apr-18 19:05 37.264702 -120.177235 146 29186ft 443kts
22-Apr-18 19:06 37.170711 -120.087886 146 29904ft 443kts
22-Apr-18 19:07 37.076762 -119.998912 146 30466ft 445kts
22-Apr-18 19:08 36.982932 -119.910336 146 30953ft 448kts
22-Apr-18 19:09 36.891304 -119.825851 154 30938ft 456kts
22-Apr-18 19:10 36.790747 -119.769110 160 30946ft 455kts
22-Apr-18 19:11 36.682613 -119.712472 160 30943ft 457kts
22-Apr-18 19:12 36.570846 -119.654459 160 30944ft 459kts
22-Apr-18 19:13 36.457953 -119.596067 160 30948ft 461kts
22-Apr-18 19:14 36.343373 -119.536713 160 30948ft 463kts
22-Apr-18 19:15 36.228440 -119.476658 160 30949ft 465kts
22-Apr-18 19:16 36.112923 -119.416437 160 30949ft 466kts
22-Apr-18 19:17 35.996780 -119.356542 160 30950ft 468kts
22-Apr-18 19:18 35.889440 -119.301809 161 30937ft 468kts
22-Apr-18 19:19 35.800840 -119.256798 161 30934ft 468kts
22-Apr-18 19:20 35.686652 -119.198996 161 30935ft 468kts
22-Apr-18 19:21 35.571338 -119.140813 161 30932ft 467kts
22-Apr-18 19:22 35.454559 -119.091428 172 30933ft 461kts
22-Apr-18 19:23 35.332508 -119.061972 173 30926ft 461kts
22-Apr-18 19:24 35.209303 -119.033363 173 30927ft 461kts
22-Apr-18 19:25 35.089173 -119.007005 176 30939ft 459kts
22-Apr-18 19:26 34.965517 -118.986438 175 30960ft 459kts
22-Apr-18 19:27 34.856552 -118.967850 175 30976ft 464kts
22-Apr-18 19:28 34.739357 -118.947840 175 31011ft 469kts
22-Apr-18 19:29 34.612030 -118.926226 174 29067ft 477kts
22-Apr-18 19:30 34.485030 -118.904666 174 26913ft 462kts
22-Apr-18 19:31 34.376207 -118.886268 173 25080ft 451kts
22-Apr-18 19:32 34.264170 -118.848909 163 22057ft 432kts
22-Apr-18 19:33 34.156529 -118.809671 162 19115ft 409kts
22-Apr-18 19:34 34.052610 -118.771728 162 17063ft 384kts
22-Apr-18 19:35 33.953898 -118.735128 162 14821ft 369kts
22-Apr-18 19:36 33.865371 -118.702637 163 12787ft 356kts
22-Apr-18 19:37 33.773649 -118.669717 163 10984ft 333kts
22-Apr-18 19:38 33.688902 -118.639547 163 11016ft 329kts
22-Apr-18 19:39 33.602010 -118.602206 139 11041ft 353kts
22-Apr-18 19:40 33.580394 -118.510641 86 10261ft 283kts
22-Apr-18 19:41 33.583875 -118.418748 86 8293ft 277kts
22-Apr-18 19:42 33.586965 -118.331642 86 6979ft 254kts
22-Apr-18 19:43 33.589124 -118.271047 86 6984ft 236kts
22-Apr-18 19:44 33.592064 -118.193813 86 6983ft 236kts
22-Apr-18 19:45 33.595270 -118.117054 86 6989ft 236kts
22-Apr-18 19:46 33.612813 -118.046838 42 7002ft 233kts
22-Apr-18 19:47 33.657246 -118.000194 41 6968ft 199kts
22-Apr-18 19:48 33.691786 -117.964384 41 5982ft 201kts
22-Apr-18 19:49 33.733599 -117.925211 36 4976ft 190kts
22-Apr-18 19:50 33.775648 -117.888851 36 4992ft 197kts
22-Apr-18 19:51 33.816835 -117.850320 35 4989ft 195kts
22-Apr-18 19:52 33.867317 -117.810459 31 4877ft 196kts
22-Apr-18 19:53 33.876810 -117.760558 119 4293ft 206kts
22-Apr-18 19:54 33.831590 -117.759995 215 3588ft 193kts
22-Apr-18 19:55 33.789531 -117.796507 209 2510ft 195kts
22-Apr-18 19:56 33.745262 -117.824696 208 1483ft 180kts
22-Apr-18 19:57 33.708414 -117.848084 208 676ft 130kts
22-Apr-18 19:58 33.678180 -117.867263 208 65ft 116kts
22-Apr-18 19:59 33.669096 -117.871588 121 65ft 0kts
22-Apr-18 20:00 33.670388 -117.869587 39 65ft 12kts
22-Apr-18 20:01 33.672667 -117.866721 100 65ft 8kts
22-Apr-18 20:02 33.672479 -117.866552 214 65ft 0kts
22-Apr-18 20:03 33.672479 -117.866552 214 65ft 0kts
22-Apr-18 20:04 33.672479 -117.866552 214 65ft 0kts
22-Apr-18 20:05 33.672479 -117.866552 214 65ft 0kts
22-Apr-18 20:06 33.672479 -117.866552 214 65ft 0kts
22-Apr-18 20:07 33.672479 -117.866552 214 65ft 0kts

Navigation Log

Ident Type
Flight plan parsing failed, navigation log unavailable